sensor_id;sensor_type;location;lat;lon;timestamp;P1;durP1;ratioP1;P2;durP2;ratioP2
36789;SDS011;22740;52.182;8.780;2023-06-22T00:05:47;10.70;;;9.05;;
36789;SDS011;22740;52.182;8.780;2023-06-22T00:11:49;18.58;;;9.48;;
36789;SDS011;22740;52.182;8.780;2023-06-22T00:17:51;11.10;;;9.23;;
36789;SDS011;22740;52.182;8.780;2023-06-22T00:23:53;13.32;;;9.93;;
36789;SDS011;22740;52.182;8.780;2023-06-22T00:29:55;14.82;;;9.73;;
36789;SDS011;22740;52.182;8.780;2023-06-22T00:35:57;14.55;;;10.55;;
36789;SDS011;22740;52.182;8.780;2023-06-22T00:41:59;13.55;;;10.82;;
36789;SDS011;22740;52.182;8.780;2023-06-22T00:48:01;13.57;;;10.73;;
36789;SDS011;22740;52.182;8.780;2023-06-22T00:54:04;11.90;;;10.02;;
36789;SDS011;22740;52.182;8.780;2023-06-22T01:00:07;15.50;;;11.73;;
36789;SDS011;22740;52.182;8.780;2023-06-22T01:12:17;14.90;;;10.50;;
36789;SDS011;22740;52.182;8.780;2023-06-22T01:18:20;14.05;;;11.93;;
36789;SDS011;22740;52.182;8.780;2023-06-22T01:24:27;17.08;;;10.85;;
36789;SDS011;22740;52.182;8.780;2023-06-22T01:30:37;15.57;;;12.18;;
36789;SDS011;22740;52.182;8.780;2023-06-22T01:36:40;14.82;;;12.30;;
36789;SDS011;22740;52.182;8.780;2023-06-22T01:42:43;16.38;;;12.50;;
36789;SDS011;22740;52.182;8.780;2023-06-22T01:48:46;13.07;;;11.68;;
36789;SDS011;22740;52.182;8.780;2023-06-22T01:54:48;16.75;;;11.85;;
36789;SDS011;22740;52.182;8.780;2023-06-22T02:00:52;15.23;;;12.30;;
36789;SDS011;22740;52.182;8.780;2023-06-22T02:06:59;14.45;;;10.02;;
36789;SDS011;22740;52.182;8.780;2023-06-22T02:13:04;13.40;;;12.00;;
36789;SDS011;22740;52.182;8.780;2023-06-22T02:19:08;14.80;;;11.63;;
36789;SDS011;22740;52.182;8.780;2023-06-22T02:25:10;16.73;;;12.27;;
36789;SDS011;22740;52.182;8.780;2023-06-22T02:31:12;13.95;;;12.13;;
36789;SDS011;22740;52.182;8.780;2023-06-22T02:37:14;14.70;;;12.05;;
36789;SDS011;22740;52.182;8.780;2023-06-22T02:43:16;13.00;;;10.55;;
36789;SDS011;22740;52.182;8.780;2023-06-22T02:49:18;12.50;;;10.68;;
36789;SDS011;22740;52.182;8.780;2023-06-22T02:55:20;13.43;;;11.82;;
36789;SDS011;22740;52.182;8.780;2023-06-22T03:01:22;14.57;;;12.15;;
36789;SDS011;22740;52.182;8.780;2023-06-22T03:07:25;16.00;;;12.00;;
36789;SDS011;22740;52.182;8.780;2023-06-22T03:13:30;14.27;;;11.55;;
36789;SDS011;22740;52.182;8.780;2023-06-22T03:19:31;14.63;;;12.00;;
36789;SDS011;22740;52.182;8.780;2023-06-22T03:25:34;13.13;;;10.07;;
36789;SDS011;22740;52.182;8.780;2023-06-22T03:31:36;15.57;;;12.13;;
36789;SDS011;22740;52.182;8.780;2023-06-22T03:37:39;15.45;;;11.15;;
36789;SDS011;22740;52.182;8.780;2023-06-22T03:43:41;13.95;;;11.73;;
36789;SDS011;22740;52.182;8.780;2023-06-22T03:49:44;14.18;;;11.77;;
36789;SDS011;22740;52.182;8.780;2023-06-22T03:55:49;14.85;;;12.00;;
36789;SDS011;22740;52.182;8.780;2023-06-22T04:01:54;15.75;;;11.38;;
36789;SDS011;22740;52.182;8.780;2023-06-22T04:07:56;15.68;;;11.20;;
36789;SDS011;22740;52.182;8.780;2023-06-22T04:13:58;19.65;;;13.05;;
36789;SDS011;22740;52.182;8.780;2023-06-22T04:20:00;14.27;;;11.23;;
36789;SDS011;22740;52.182;8.780;2023-06-22T04:26:02;14.05;;;11.48;;
36789;SDS011;22740;52.182;8.780;2023-06-22T04:32:04;13.40;;;11.02;;
36789;SDS011;22740;52.182;8.780;2023-06-22T04:38:07;16.35;;;11.68;;
36789;SDS011;22740;52.182;8.780;2023-06-22T04:44:14;15.70;;;11.98;;
36789;SDS011;22740;52.182;8.780;2023-06-22T04:50:25;15.65;;;11.88;;
36789;SDS011;22740;52.182;8.780;2023-06-22T04:56:28;21.00;;;11.82;;
36789;SDS011;22740;52.182;8.780;2023-06-22T05:02:30;14.98;;;12.30;;
36789;SDS011;22740;52.182;8.780;2023-06-22T05:08:34;16.15;;;11.93;;
36789;SDS011;22740;52.182;8.780;2023-06-22T05:14:36;13.90;;;12.30;;
36789;SDS011;22740;52.182;8.780;2023-06-22T05:20:38;17.58;;;13.10;;
36789;SDS011;22740;52.182;8.780;2023-06-22T05:26:40;15.80;;;12.43;;
36789;SDS011;22740;52.182;8.780;2023-06-22T05:32:42;15.68;;;12.63;;
36789;SDS011;22740;52.182;8.780;2023-06-22T05:38:45;15.68;;;12.35;;
36789;SDS011;22740;52.182;8.780;2023-06-22T05:44:47;13.00;;;11.27;;
36789;SDS011;22740;52.182;8.780;2023-06-22T05:50:50;16.20;;;12.32;;
36789;SDS011;22740;52.182;8.780;2023-06-22T05:56:52;16.25;;;11.95;;
36789;SDS011;22740;52.182;8.780;2023-06-22T06:02:54;14.52;;;12.75;;
36789;SDS011;22740;52.182;8.780;2023-06-22T06:08:56;14.60;;;12.45;;
36789;SDS011;22740;52.182;8.780;2023-06-22T06:14:58;16.27;;;12.70;;
36789;SDS011;22740;52.182;8.780;2023-06-22T06:21:00;15.68;;;12.15;;
36789;SDS011;22740;52.182;8.780;2023-06-22T06:27:02;15.90;;;11.32;;
36789;SDS011;22740;52.182;8.780;2023-06-22T06:33:06;17.63;;;11.25;;
36789;SDS011;22740;52.182;8.780;2023-06-22T06:39:10;17.08;;;11.20;;
36789;SDS011;22740;52.182;8.780;2023-06-22T06:45:12;14.50;;;11.50;;
36789;SDS011;22740;52.182;8.780;2023-06-22T06:51:24;14.40;;;11.25;;
36789;SDS011;22740;52.182;8.780;2023-06-22T06:57:26;11.27;;;10.07;;
36789;SDS011;22740;52.182;8.780;2023-06-22T07:03:31;14.23;;;10.80;;
36789;SDS011;22740;52.182;8.780;2023-06-22T07:09:34;12.63;;;10.55;;
36789;SDS011;22740;52.182;8.780;2023-06-22T07:15:36;14.13;;;10.82;;
36789;SDS011;22740;52.182;8.780;2023-06-22T07:21:39;10.40;;;9.00;;
36789;SDS011;22740;52.182;8.780;2023-06-22T07:27:44;14.40;;;10.93;;
36789;SDS011;22740;52.182;8.780;2023-06-22T07:34:06;19.77;;;11.32;;
36789;SDS011;22740;52.182;8.780;2023-06-22T07:40:09;14.52;;;10.73;;
36789;SDS011;22740;52.182;8.780;2023-06-22T07:46:11;14.00;;;11.27;;
36789;SDS011;22740;52.182;8.780;2023-06-22T07:52:14;15.77;;;12.13;;
36789;SDS011;22740;52.182;8.780;2023-06-22T07:58:16;18.08;;;12.23;;
36789;SDS011;22740;52.182;8.780;2023-06-22T08:04:20;17.55;;;13.27;;
36789;SDS011;22740;52.182;8.780;2023-06-22T08:10:22;15.70;;;12.55;;
36789;SDS011;22740;52.182;8.780;2023-06-22T08:16:24;19.27;;;12.68;;
36789;SDS011;22740;52.182;8.780;2023-06-22T08:22:26;16.20;;;12.23;;
36789;SDS011;22740;52.182;8.780;2023-06-22T08:28:28;15.77;;;11.88;;
36789;SDS011;22740;52.182;8.780;2023-06-22T08:34:30;13.80;;;12.35;;
36789;SDS011;22740;52.182;8.780;2023-06-22T08:40:32;14.68;;;12.60;;
36789;SDS011;22740;52.182;8.780;2023-06-22T08:46:34;14.00;;;11.85;;
36789;SDS011;22740;52.182;8.780;2023-06-22T08:52:40;15.65;;;12.75;;
36789;SDS011;22740;52.182;8.780;2023-06-22T09:04:48;17.35;;;13.00;;
36789;SDS011;22740;52.182;8.780;2023-06-22T09:10:51;17.90;;;14.18;;
36789;SDS011;22740;52.182;8.780;2023-06-22T09:16:53;16.83;;;14.20;;
36789;SDS011;22740;52.182;8.780;2023-06-22T09:22:55;14.18;;;12.45;;
36789;SDS011;22740;52.182;8.780;2023-06-22T09:28:57;21.30;;;14.00;;
36789;SDS011;22740;52.182;8.780;2023-06-22T09:35:02;16.02;;;13.10;;
36789;SDS011;22740;52.182;8.780;2023-06-22T09:41:07;17.60;;;13.82;;
36789;SDS011;22740;52.182;8.780;2023-06-22T09:47:09;17.15;;;13.55;;
36789;SDS011;22740;52.182;8.780;2023-06-22T09:53:11;17.50;;;14.45;;
36789;SDS011;22740;52.182;8.780;2023-06-22T09:59:12;17.33;;;15.40;;
36789;SDS011;22740;52.182;8.780;2023-06-22T10:05:19;20.08;;;14.75;;
36789;SDS011;22740;52.182;8.780;2023-06-22T10:11:21;19.15;;;15.25;;
36789;SDS011;22740;52.182;8.780;2023-06-22T10:17:28;22.98;;;14.77;;
36789;SDS011;22740;52.182;8.780;2023-06-22T10:23:30;18.45;;;15.02;;
36789;SDS011;22740;52.182;8.780;2023-06-22T10:29:32;17.83;;;14.07;;
36789;SDS011;22740;52.182;8.780;2023-06-22T10:35:34;18.40;;;14.57;;
36789;SDS011;22740;52.182;8.780;2023-06-22T10:41:36;18.42;;;14.52;;
36789;SDS011;22740;52.182;8.780;2023-06-22T10:47:41;15.02;;;13.35;;
36789;SDS011;22740;52.182;8.780;2023-06-22T10:53:43;16.88;;;15.07;;
36789;SDS011;22740;52.182;8.780;2023-06-22T10:59:46;17.47;;;15.50;;
36789;SDS011;22740;52.182;8.780;2023-06-22T11:05:47;17.23;;;13.73;;
36789;SDS011;22740;52.182;8.780;2023-06-22T11:11:51;19.33;;;15.85;;
36789;SDS011;22740;52.182;8.780;2023-06-22T11:17:55;15.48;;;12.13;;
36789;SDS011;22740;52.182;8.780;2023-06-22T11:23:57;17.70;;;13.90;;
36789;SDS011;22740;52.182;8.780;2023-06-22T11:30:00;15.93;;;14.23;;
36789;SDS011;22740;52.182;8.780;2023-06-22T11:36:02;14.23;;;10.57;;
36789;SDS011;22740;52.182;8.780;2023-06-22T11:42:04;12.95;;;10.95;;
36789;SDS011;22740;52.182;8.780;2023-06-22T11:48:06;11.00;;;9.80;;
36789;SDS011;22740;52.182;8.780;2023-06-22T11:54:08;12.95;;;10.35;;
36789;SDS011;22740;52.182;8.780;2023-06-22T12:00:10;10.80;;;9.30;;
36789;SDS011;22740;52.182;8.780;2023-06-22T12:06:17;14.45;;;9.75;;
36789;SDS011;22740;52.182;8.780;2023-06-22T12:12:19;13.52;;;9.52;;
36789;SDS011;22740;52.182;8.780;2023-06-22T12:18:21;9.80;;;8.63;;
36789;SDS011;22740;52.182;8.780;2023-06-22T12:24:23;11.20;;;9.63;;
36789;SDS011;22740;52.182;8.780;2023-06-22T12:30:25;10.93;;;8.23;;
36789;SDS011;22740;52.182;8.780;2023-06-22T12:36:27;10.52;;;8.32;;
36789;SDS011;22740;52.182;8.780;2023-06-22T12:42:29;9.87;;;8.20;;
36789;SDS011;22740;52.182;8.780;2023-06-22T12:48:31;10.38;;;7.68;;
36789;SDS011;22740;52.182;8.780;2023-06-22T12:54:33;12.50;;;8.38;;
36789;SDS011;22740;52.182;8.780;2023-06-22T13:00:54;9.45;;;7.85;;
36789;SDS011;22740;52.182;8.780;2023-06-22T13:06:56;12.57;;;8.73;;
36789;SDS011;22740;52.182;8.780;2023-06-22T13:12:58;13.27;;;8.80;;
36789;SDS011;22740;52.182;8.780;2023-06-22T13:19:02;13.80;;;10.20;;
36789;SDS011;22740;52.182;8.780;2023-06-22T13:25:04;12.15;;;10.10;;
36789;SDS011;22740;52.182;8.780;2023-06-22T13:31:07;11.05;;;9.73;;
36789;SDS011;22740;52.182;8.780;2023-06-22T13:37:10;11.63;;;10.00;;
36789;SDS011;22740;52.182;8.780;2023-06-22T13:43:12;12.40;;;10.88;;
36789;SDS011;22740;52.182;8.780;2023-06-22T13:49:14;15.27;;;9.80;;
36789;SDS011;22740;52.182;8.780;2023-06-22T13:55:16;16.67;;;12.77;;
36789;SDS011;22740;52.182;8.780;2023-06-22T14:01:18;15.88;;;12.90;;
36789;SDS011;22740;52.182;8.780;2023-06-22T14:07:20;17.73;;;14.02;;
36789;SDS011;22740;52.182;8.780;2023-06-22T14:13:22;24.48;;;16.10;;
36789;SDS011;22740;52.182;8.780;2023-06-22T14:19:24;35.85;;;17.63;;
36789;SDS011;22740;52.182;8.780;2023-06-22T14:25:28;22.73;;;17.73;;
36789;SDS011;22740;52.182;8.780;2023-06-22T14:31:30;24.27;;;18.98;;
36789;SDS011;22740;52.182;8.780;2023-06-22T14:37:32;28.20;;;21.58;;
36789;SDS011;22740;52.182;8.780;2023-06-22T14:43:34;24.05;;;18.23;;
36789;SDS011;22740;52.182;8.780;2023-06-22T14:49:35;25.10;;;20.58;;
36789;SDS011;22740;52.182;8.780;2023-06-22T14:55:38;23.30;;;18.77;;
36789;SDS011;22740;52.182;8.780;2023-06-22T15:01:40;26.63;;;21.30;;
36789;SDS011;22740;52.182;8.780;2023-06-22T15:07:42;25.40;;;21.43;;
36789;SDS011;22740;52.182;8.780;2023-06-22T15:13:44;29.00;;;24.58;;
36789;SDS011;22740;52.182;8.780;2023-06-22T15:19:46;39.17;;;27.17;;
36789;SDS011;22740;52.182;8.780;2023-06-22T15:25:48;36.22;;;28.17;;
36789;SDS011;22740;52.182;8.780;2023-06-22T15:31:51;38.08;;;28.92;;
36789;SDS011;22740;52.182;8.780;2023-06-22T15:37:54;33.15;;;27.75;;
36789;SDS011;22740;52.182;8.780;2023-06-22T15:43:55;35.75;;;29.00;;
36789;SDS011;22740;52.182;8.780;2023-06-22T15:49:58;36.77;;;28.73;;
36789;SDS011;22740;52.182;8.780;2023-06-22T15:56:03;36.47;;;29.73;;
36789;SDS011;22740;52.182;8.780;2023-06-22T16:02:06;31.85;;;27.73;;
36789;SDS011;22740;52.182;8.780;2023-06-22T16:08:09;31.90;;;25.90;;
36789;SDS011;22740;52.182;8.780;2023-06-22T16:14:12;33.25;;;26.27;;
36789;SDS011;22740;52.182;8.780;2023-06-22T16:20:14;28.65;;;24.35;;
36789;SDS011;22740;52.182;8.780;2023-06-22T16:26:18;25.40;;;22.25;;
36789;SDS011;22740;52.182;8.780;2023-06-22T16:32:20;21.08;;;18.58;;
36789;SDS011;22740;52.182;8.780;2023-06-22T16:38:22;20.90;;;18.67;;
36789;SDS011;22740;52.182;8.780;2023-06-22T16:44:24;24.67;;;19.55;;
36789;SDS011;22740;52.182;8.780;2023-06-22T16:50:26;19.90;;;17.80;;
36789;SDS011;22740;52.182;8.780;2023-06-22T16:56:28;20.98;;;18.77;;
36789;SDS011;22740;52.182;8.780;2023-06-22T17:02:30;24.35;;;19.80;;
36789;SDS011;22740;52.182;8.780;2023-06-22T17:08:35;22.80;;;19.77;;
36789;SDS011;22740;52.182;8.780;2023-06-22T17:14:41;21.83;;;19.43;;
36789;SDS011;22740;52.182;8.780;2023-06-22T17:20:46;21.83;;;19.60;;
36789;SDS011;22740;52.182;8.780;2023-06-22T17:26:49;26.60;;;20.90;;
36789;SDS011;22740;52.182;8.780;2023-06-22T17:32:54;24.67;;;22.08;;
36789;SDS011;22740;52.182;8.780;2023-06-22T17:38:58;42.63;;;24.48;;
36789;SDS011;22740;52.182;8.780;2023-06-22T17:45:00;29.98;;;21.42;;
36789;SDS011;22740;52.182;8.780;2023-06-22T17:51:03;26.75;;;22.95;;
36789;SDS011;22740;52.182;8.780;2023-06-22T17:57:14;30.65;;;23.15;;
36789;SDS011;22740;52.182;8.780;2023-06-22T18:03:22;37.50;;;25.38;;
36789;SDS011;22740;52.182;8.780;2023-06-22T18:09:26;47.40;;;26.75;;
36789;SDS011;22740;52.182;8.780;2023-06-22T18:21:33;28.60;;;23.77;;
36789;SDS011;22740;52.182;8.780;2023-06-22T18:27:35;27.98;;;22.83;;
36789;SDS011;22740;52.182;8.780;2023-06-22T18:33:38;25.55;;;20.65;;
36789;SDS011;22740;52.182;8.780;2023-06-22T18:39:42;23.08;;;20.60;;
36789;SDS011;22740;52.182;8.780;2023-06-22T18:45:46;23.13;;;20.42;;
36789;SDS011;22740;52.182;8.780;2023-06-22T18:58:17;27.38;;;21.67;;
36789;SDS011;22740;52.182;8.780;2023-06-22T19:04:24;27.33;;;22.95;;
36789;SDS011;22740;52.182;8.780;2023-06-22T19:10:47;27.85;;;24.67;;
36789;SDS011;22740;52.182;8.780;2023-06-22T19:16:56;26.73;;;22.58;;
36789;SDS011;22740;52.182;8.780;2023-06-22T19:23:00;24.55;;;21.95;;
36789;SDS011;22740;52.182;8.780;2023-06-22T19:29:01;24.95;;;22.30;;
36789;SDS011;22740;52.182;8.780;2023-06-22T19:35:17;28.73;;;22.70;;
36789;SDS011;22740;52.182;8.780;2023-06-22T19:41:22;24.00;;;20.30;;
36789;SDS011;22740;52.182;8.780;2023-06-22T19:47:24;22.50;;;20.10;;
36789;SDS011;22740;52.182;8.780;2023-06-22T19:53:26;23.30;;;19.58;;
36789;SDS011;22740;52.182;8.780;2023-06-22T19:59:29;21.73;;;18.98;;
36789;SDS011;22740;52.182;8.780;2023-06-22T20:05:31;25.80;;;18.35;;
36789;SDS011;22740;52.182;8.780;2023-06-22T20:11:35;23.10;;;19.08;;
36789;SDS011;22740;52.182;8.780;2023-06-22T20:17:41;24.27;;;19.27;;
36789;SDS011;22740;52.182;8.780;2023-06-22T20:23:48;25.67;;;19.70;;
36789;SDS011;22740;52.182;8.780;2023-06-22T20:29:50;26.63;;;21.10;;
36789;SDS011;22740;52.182;8.780;2023-06-22T20:35:52;23.98;;;20.05;;
36789;SDS011;22740;52.182;8.780;2023-06-22T20:41:54;25.65;;;20.15;;
36789;SDS011;22740;52.182;8.780;2023-06-22T20:47:57;24.63;;;20.77;;
36789;SDS011;22740;52.182;8.780;2023-06-22T20:53:59;23.45;;;19.67;;
36789;SDS011;22740;52.182;8.780;2023-06-22T21:00:01;22.85;;;19.25;;
36789;SDS011;22740;52.182;8.780;2023-06-22T21:06:07;24.73;;;21.38;;
36789;SDS011;22740;52.182;8.780;2023-06-22T21:12:09;23.23;;;19.92;;
36789;SDS011;22740;52.182;8.780;2023-06-22T21:18:11;26.25;;;20.33;;
36789;SDS011;22740;52.182;8.780;2023-06-22T21:24:13;22.02;;;19.40;;
36789;SDS011;22740;52.182;8.780;2023-06-22T21:30:15;24.17;;;20.30;;
36789;SDS011;22740;52.182;8.780;2023-06-22T21:36:17;24.20;;;19.52;;
36789;SDS011;22740;52.182;8.780;2023-06-22T21:42:19;29.17;;;20.70;;
36789;SDS011;22740;52.182;8.780;2023-06-22T21:54:25;29.83;;;19.92;;
36789;SDS011;22740;52.182;8.780;2023-06-22T22:00:26;26.67;;;20.70;;
36789;SDS011;22740;52.182;8.780;2023-06-22T22:06:28;25.85;;;20.60;;
36789;SDS011;22740;52.182;8.780;2023-06-22T22:12:30;30.17;;;21.17;;
36789;SDS011;22740;52.182;8.780;2023-06-22T22:18:32;25.90;;;21.05;;
36789;SDS011;22740;52.182;8.780;2023-06-22T22:24:34;27.52;;;21.80;;
36789;SDS011;22740;52.182;8.780;2023-06-22T22:30:36;27.27;;;20.30;;
36789;SDS011;22740;52.182;8.780;2023-06-22T22:36:38;23.05;;;20.00;;
36789;SDS011;22740;52.182;8.780;2023-06-22T22:42:42;24.30;;;19.38;;
36789;SDS011;22740;52.182;8.780;2023-06-22T22:48:44;23.05;;;19.70;;
36789;SDS011;22740;52.182;8.780;2023-06-22T22:54:46;24.75;;;20.60;;
36789;SDS011;22740;52.182;8.780;2023-06-22T23:00:49;24.10;;;20.08;;
36789;SDS011;22740;52.182;8.780;2023-06-22T23:06:51;27.93;;;20.80;;
36789;SDS011;22740;52.182;8.780;2023-06-22T23:12:53;25.35;;;17.90;;
36789;SDS011;22740;52.182;8.780;2023-06-22T23:18:55;26.70;;;18.33;;
36789;SDS011;22740;52.182;8.780;2023-06-22T23:24:57;24.48;;;18.27;;
36789;SDS011;22740;52.182;8.780;2023-06-22T23:30:59;25.27;;;19.30;;
36789;SDS011;22740;52.182;8.780;2023-06-22T23:37:01;27.30;;;19.52;;
36789;SDS011;22740;52.182;8.780;2023-06-22T23:43:04;24.15;;;20.50;;
36789;SDS011;22740;52.182;8.780;2023-06-22T23:49:09;24.60;;;19.80;;
36789;SDS011;22740;52.182;8.780;2023-06-22T23:55:11;23.67;;;17.52;;
